SBOSBO AUS / KAUS
Speedbird OnlineSpeedbird Online AUS / KAUS

Austin Bergstrom International Airport
02:55 20.6°C

Location Austin, United States
Latitude: 30.194499969482422
Longitude: -97.6698989868164
Web Airport Website | Wikipedia
Altitude 165 Meter / 542 Feet
Distance 7,928 KM / 4,926 Miles
from London.
Time Zone UTC -5 hours (America/Chicago)
Codes IATA: AUS
ICAO: KAUS
Currency £1 equals USD 1.13
Runways
RunwayLength (m)Surface
18L2743Concrete
18R3733Concrete
36L3733Concrete
36R2743Concrete
Radio
TypeDescriptionFrequency
A/DAPP/DEP118.8
ASOSASOS128.875
ATISATIS124.4
CLDCLNC DEL125.5
GNDGND121.7
OPSARNG OPS36.8
RDOSAN ANGELO RDO122.55
TWRTWR121
UNICUNICOM122.95
Live ATC
METAR KAUS 060653Z 22003KT 10SM CLR 19/13 A3012 RMK AO2 SLP190 T01890128
TAF KAUS 060535Z 0606/0712 VRB02KT P6SM FEW250 FM061800 08005KT P6SM FEW060 SCT250 FM070300 VRB02KT P6SM BKN250
Weather As Of 06 Oct 2022 02:55
Description Clear sky
Wind 2 km/h from South (180°)
Cloud Cover 0%
Precipitation Rain: none, Snow: none
Sunrise 07:26
Sunset 19:10
Lounges American Airlines Admirals Club, Main Terminal
Rotations During the last 90 days there were
78 flights from LHR
2 flights from DFW
81 flights to LHR


© 2017-2022 Speedbird Online